createdAt,value
2018-06-08T03:00:57.339Z,95.60
2018-06-08T03:01:58.643Z,95.70
2018-06-08T03:02:57.031Z,95.50
2018-06-08T03:03:57.098Z,95.21
2018-06-08T03:04:57.216Z,95.41
2018-06-08T03:05:57.309Z,94.74
2018-06-08T03:06:57.556Z,95.03
2018-06-08T03:07:57.884Z,95.12
2018-06-08T03:08:58.002Z,95.12
2018-06-08T03:09:58.053Z,94.93
2018-06-08T03:10:58.218Z,95.36
2018-06-08T03:11:58.469Z,94.45
2018-06-08T03:12:58.636Z,94.64
2018-06-08T03:13:58.719Z,94.54
2018-06-08T03:14:59.008Z,94.64
2018-06-08T03:15:59.090Z,94.93
2018-06-08T03:16:59.254Z,94.93
2018-06-08T03:17:59.444Z,95.12
2018-06-08T03:18:59.646Z,94.54
2018-06-08T03:19:59.842Z,94.54
2018-06-08T03:21:00.015Z,94.98
2018-06-08T03:22:00.061Z,94.64
2018-06-08T03:23:00.353Z,94.45
2018-06-08T03:24:00.537Z,94.54
2018-06-08T03:25:00.653Z,95.31
2018-06-08T03:26:00.792Z,95.31
2018-06-08T03:27:00.972Z,94.74
2018-06-08T03:28:01.128Z,94.83
2018-06-08T03:29:01.251Z,94.93
2018-06-08T03:30:01.429Z,94.93
2018-06-08T03:31:01.631Z,94.83
2018-06-08T03:32:01.851Z,95.41
2018-06-08T03:33:02.010Z,94.83
2018-06-08T03:34:02.196Z,95.03
2018-06-08T03:35:02.251Z,94.69
2018-06-08T03:36:02.439Z,95.21
2018-06-08T03:37:02.603Z,95.21
2018-06-08T03:38:02.812Z,95.41
2018-06-08T03:39:03.000Z,94.74
2018-06-08T03:40:03.178Z,95.31
2018-06-08T03:41:03.381Z,94.54
2018-06-08T03:42:03.446Z,94.98
2018-06-08T03:43:03.745Z,94.83
2018-06-08T03:44:03.841Z,94.88
2018-06-08T03:45:04.026Z,94.49
2018-06-08T03:46:04.192Z,94.35
2018-06-08T03:47:04.350Z,94.69
2018-06-08T03:48:04.578Z,94.78
2018-06-08T03:49:04.721Z,94.78
2018-06-08T03:50:04.859Z,94.78
2018-06-08T03:51:05.150Z,95.31
2018-06-08T03:52:05.279Z,94.40
2018-06-08T03:53:05.405Z,94.83
2018-06-08T03:54:05.950Z,94.83
2018-06-08T03:55:05.782Z,95.50
2018-06-08T03:56:05.966Z,94.98
2018-06-08T03:57:06.079Z,94.74
2018-06-08T03:58:06.327Z,95.21
2018-06-08T03:59:06.493Z,95.41
2018-06-08T04:00:06.647Z,95.55
2018-06-08T04:01:06.820Z,95.65
2018-06-08T04:02:07.029Z,95.45
2018-06-08T04:03:07.262Z,95.36
2018-06-08T04:04:07.546Z,94.78
2018-06-08T04:05:07.640Z,94.88
2018-06-08T04:06:07.899Z,94.59
2018-06-08T04:07:08.008Z,94.69
2018-06-08T04:08:08.232Z,94.59
2018-06-08T04:09:08.336Z,94.40
2018-06-08T04:10:08.521Z,94.69
2018-06-08T04:11:08.923Z,94.01
2018-06-08T04:12:08.885Z,94.11
2018-06-08T04:13:09.065Z,94.11
2018-06-08T04:14:09.338Z,94.49
2018-06-08T04:15:09.527Z,94.49
2018-06-08T04:16:09.559Z,93.63
2018-06-08T04:17:10.330Z,93.92
2018-06-08T04:18:10.012Z,93.25
2018-06-08T04:19:10.095Z,93.44
2018-06-08T04:20:10.261Z,93.82
2018-06-08T04:21:10.532Z,93.77
2018-06-08T04:22:10.732Z,94.16
2018-06-08T04:23:10.739Z,93.77
2018-06-08T04:24:10.936Z,94.11
2018-06-08T04:25:11.172Z,93.77
2018-06-08T04:26:11.248Z,94.06
2018-06-08T04:27:11.486Z,93.39
2018-06-08T04:28:11.563Z,92.81
2018-06-08T04:29:11.792Z,93.19
2018-06-08T04:30:11.973Z,93.29
2018-06-08T04:31:12.044Z,92.81
2018-06-08T04:32:12.276Z,92.81
2018-06-08T04:33:12.525Z,92.81
2018-06-08T04:34:12.579Z,93.01
2018-06-08T04:35:12.705Z,93.29
2018-06-08T04:36:12.900Z,93.10
2018-06-08T04:37:13.136Z,93.77
2018-06-08T04:38:13.286Z,93.29
2018-06-08T04:39:13.438Z,93.96
2018-06-08T04:40:13.586Z,94.16
2018-06-08T04:41:13.811Z,94.16
2018-06-08T04:42:13.980Z,94.16
2018-06-08T04:43:14.139Z,94.54
2018-06-08T04:44:14.223Z,94.64
2018-06-08T04:45:14.397Z,94.83
2018-06-08T04:46:14.578Z,93.77
2018-06-08T04:47:14.716Z,94.16
2018-06-08T04:48:14.914Z,94.83
2018-06-08T04:49:15.036Z,94.64
2018-06-08T04:50:15.246Z,94.54
2018-06-08T04:51:15.836Z,94.26
2018-06-08T04:52:15.641Z,94.54
2018-06-08T04:53:15.764Z,94.35
2018-06-08T04:54:16.017Z,94.73
2018-06-08T04:55:16.098Z,94.83
2018-06-08T04:56:16.352Z,95.40
2018-06-08T04:57:16.549Z,95.40
2018-06-08T04:58:16.663Z,95.31
2018-06-08T04:59:16.846Z,94.73
2018-06-08T05:00:17.000Z,94.45
2018-06-08T05:01:17.130Z,94.54
2018-06-08T05:02:17.359Z,94.83
2018-06-08T05:03:17.450Z,94.93
2018-06-08T05:04:17.586Z,94.35
2018-06-08T05:05:17.811Z,93.77
2018-06-08T05:06:18.109Z,94.26
2018-06-08T05:07:18.211Z,94.16
2018-06-08T05:08:18.330Z,94.26
2018-06-08T05:09:18.408Z,94.16
2018-06-08T05:10:18.703Z,94.45
2018-06-08T05:11:18.862Z,94.35
2018-06-08T05:12:19.031Z,94.93
2018-06-08T05:13:19.172Z,94.45
2018-06-08T05:14:19.249Z,95.12
2018-06-08T05:15:19.514Z,95.12
2018-06-08T05:16:19.692Z,94.35
2018-06-08T05:17:19.802Z,94.59
2018-06-08T05:18:19.985Z,94.49
2018-06-08T05:19:20.153Z,94.21
2018-06-08T05:20:20.322Z,93.91
2018-06-08T05:21:20.792Z,93.82
2018-06-08T05:22:33.671Z,93.82
2018-06-08T05:23:27.213Z,93.63
2018-06-08T05:24:26.136Z,93.91
2018-06-08T05:25:33.613Z,93.82
2018-06-08T05:26:31.194Z,93.63
2018-06-08T05:27:24.702Z,93.53
2018-06-08T05:28:25.364Z,93.63
2018-06-08T05:29:24.310Z,93.15
2018-06-08T05:30:24.732Z,92.96
2018-06-08T05:31:25.188Z,93.34
2018-06-08T05:32:25.260Z,93.15
2018-06-08T05:33:25.028Z,92.96
2018-06-08T05:34:24.875Z,93.82
2018-06-08T05:35:25.785Z,92.86
2018-06-08T05:36:23.368Z,93.53
2018-06-08T05:37:23.248Z,92.86
2018-06-08T05:38:23.421Z,93.53
2018-06-08T05:39:23.576Z,93.24
2018-06-08T05:40:34.132Z,93.34
2018-06-08T05:42:34.196Z,93.53
2018-06-08T05:43:27.375Z,92.86
2018-06-08T05:44:27.696Z,92.86
2018-06-08T05:45:29.342Z,93.24
2018-06-08T05:46:27.904Z,92.96
2018-06-08T05:47:28.593Z,92.91
2018-06-08T05:48:27.560Z,92.91
2018-06-08T05:49:25.784Z,93.10
2018-06-08T05:50:25.971Z,93.19
2018-06-08T05:51:26.031Z,93.29
2018-06-08T05:52:26.085Z,93.00
2018-06-08T05:53:26.353Z,93.29
2018-06-08T05:54:26.714Z,93.38
2018-06-08T05:55:26.832Z,92.52
2018-06-08T05:56:28.161Z,92.91
2018-06-08T05:57:26.797Z,93.58
2018-06-08T05:58:26.931Z,93.00
2018-06-08T05:59:27.152Z,92.52
2018-06-08T06:00:27.578Z,91.85
2018-06-08T06:01:27.494Z,91.94
2018-06-08T06:02:27.644Z,92.61
2018-06-08T06:03:29.029Z,92.38
2018-06-08T06:04:28.135Z,91.80
2018-06-08T06:05:28.354Z,91.51
2018-06-08T06:06:28.434Z,91.31
2018-06-08T06:07:28.494Z,90.35
2018-06-08T06:08:28.658Z,90.55
2018-06-08T06:09:28.838Z,90.35
2018-06-08T06:10:28.955Z,90.35
2018-06-08T06:11:29.165Z,90.83
2018-06-08T06:12:29.502Z,90.83
2018-06-08T06:13:29.627Z,90.45
2018-06-08T06:14:29.717Z,90.35
2018-06-08T06:15:29.925Z,90.35
2018-06-08T06:16:29.983Z,90.26
2018-06-08T06:17:30.217Z,90.20
2018-06-08T06:18:30.353Z,89.53
2018-06-08T06:19:30.545Z,89.15
2018-06-08T06:20:30.605Z,88.18
2018-06-08T06:21:31.009Z,88.47
2018-06-08T06:22:31.126Z,88.76
2018-06-08T06:23:31.272Z,88.47
2018-06-08T06:24:31.501Z,88.38
2018-06-08T06:25:31.608Z,88.09
2018-06-08T06:26:31.735Z,87.84
2018-06-08T06:27:32.024Z,87.94
2018-06-08T06:28:32.048Z,88.04
2018-06-08T06:29:32.287Z,88.23
2018-06-08T06:30:32.499Z,86.98
2018-06-08T06:31:32.532Z,87.07
2018-06-08T06:32:32.779Z,86.98
2018-06-08T06:33:33.089Z,87.30
2018-06-08T06:34:33.129Z,86.35
2018-06-08T06:35:33.396Z,86.44
2018-06-08T06:36:33.479Z,86.15
2018-06-08T06:37:33.685Z,86.35
2018-06-08T06:38:33.959Z,85.67
2018-06-08T06:39:34.121Z,85.86
2018-06-08T06:40:34.337Z,85.61
2018-06-08T06:41:34.491Z,85.71
2018-06-08T06:42:34.638Z,84.94
2018-06-08T06:43:34.845Z,85.03
2018-06-08T06:44:34.951Z,84.84
2018-06-08T06:45:35.142Z,84.46
2018-06-08T06:46:35.346Z,83.98
2018-06-08T06:47:35.468Z,85.27
2018-06-08T06:48:35.633Z,83.83
2018-06-08T06:49:35.909Z,83.34
2018-06-08T06:50:36.124Z,83.05
2018-06-08T06:51:36.305Z,82.86
2018-06-08T06:52:36.441Z,82.57
2018-06-08T06:53:36.635Z,82.09
2018-06-08T06:54:36.734Z,81.55
2018-06-08T06:55:36.923Z,81.07
2018-06-08T06:56:37.040Z,80.87
2018-06-08T06:57:37.283Z,80.58
2018-06-08T06:58:37.493Z,80.43
2018-06-08T06:59:37.635Z,80.43
2018-06-08T07:00:37.734Z,80.33
2018-06-08T07:01:37.986Z,79.95
2018-06-08T07:02:38.096Z,79.37
2018-06-08T07:03:38.271Z,79.12
2018-06-08T07:04:38.536Z,78.92
2018-06-08T07:05:38.624Z,79.12
2018-06-08T07:06:38.785Z,79.02
2018-06-08T07:07:39.001Z,79.02
2018-06-08T07:08:39.165Z,79.12
2018-06-08T07:09:39.278Z,79.60
2018-06-08T07:10:39.404Z,77.28
2018-06-08T07:11:39.649Z,77.22
2018-06-08T07:12:39.849Z,76.42
2018-06-08T07:13:39.965Z,75.29
2018-06-08T07:14:40.158Z,75.20
2018-06-08T07:15:40.377Z,76.35
2018-06-08T07:16:40.676Z,75.87
2018-06-08T07:17:40.647Z,75.58
2018-06-08T07:18:40.792Z,76.26
2018-06-08T07:19:41.107Z,74.62
2018-06-08T07:20:41.272Z,73.26
2018-06-08T07:21:41.437Z,75.39
2018-06-08T07:22:41.594Z,75.52
2018-06-08T07:23:41.731Z,75.43
2018-06-08T07:24:41.967Z,73.97
2018-06-08T07:25:42.155Z,73.39
2018-06-08T07:26:42.282Z,73.78
2018-06-08T07:27:42.432Z,73.72
2018-06-08T07:28:42.595Z,73.53
2018-06-08T07:29:43.495Z,74.11
2018-06-08T07:30:42.958Z,73.91
2018-06-08T07:31:43.364Z,73.24
2018-06-08T07:32:43.369Z,72.50
2018-06-08T07:33:43.493Z,71.72
2018-06-08T07:34:43.675Z,72.21
2018-06-08T07:35:44.029Z,72.40
2018-06-08T07:36:44.166Z,72.34
2018-06-08T07:37:44.185Z,73.02
2018-06-08T07:38:44.307Z,72.02
2018-06-08T07:39:44.707Z,71.82
2018-06-08T07:40:44.711Z,71.47
2018-06-08T07:41:44.893Z,72.24
2018-06-08T07:42:45.058Z,72.44
2018-06-08T07:43:45.241Z,72.11
2018-06-08T07:44:45.391Z,71.92
2018-06-08T07:45:45.628Z,71.92
2018-06-08T07:46:45.847Z,71.34
2018-06-08T07:47:45.927Z,71.62
2018-06-08T07:48:46.132Z,72.63
2018-06-08T07:49:46.327Z,73.50
2018-06-08T07:50:46.515Z,72.89
2018-06-08T07:51:46.663Z,71.76
2018-06-08T07:52:46.808Z,71.86
2018-06-08T07:53:47.025Z,70.50
2018-06-08T07:54:47.240Z,70.50
2018-06-08T07:55:47.374Z,71.18
2018-06-08T07:56:47.493Z,71.66
2018-06-08T07:57:47.602Z,70.89
2018-06-08T07:58:47.881Z,70.21
2018-06-08T07:59:48.031Z,70.05
2018-06-08T08:00:48.242Z,70.83
2018-06-08T08:01:48.398Z,70.54
2018-06-08T08:02:48.546Z,71.73
2018-06-08T08:03:48.672Z,71.73
2018-06-08T08:04:48.848Z,71.44
2018-06-08T08:05:48.984Z,70.67
2018-06-08T08:06:49.268Z,69.70
2018-06-08T08:07:49.398Z,68.73
2018-06-08T08:08:49.641Z,69.57
2018-06-08T08:09:49.803Z,70.67
2018-06-08T08:10:49.915Z,69.57
2018-06-08T08:11:50.179Z,70.67
2018-06-08T08:12:50.361Z,71.89
2018-06-08T08:13:50.453Z,71.54
2018-06-08T08:14:50.675Z,71.54
2018-06-08T08:15:50.887Z,72.12
2018-06-08T08:16:51.031Z,72.80
2018-06-08T08:17:51.239Z,72.61
2018-06-08T08:18:51.328Z,69.89
2018-06-08T08:19:51.578Z,69.99
2018-06-08T08:20:51.751Z,69.02
2018-06-08T08:21:51.929Z,70.09
2018-06-08T08:22:52.173Z,70.70
2018-06-08T08:23:52.321Z,70.90
2018-06-08T08:24:52.495Z,69.76
2018-06-08T08:25:52.710Z,68.60
2018-06-08T08:26:52.804Z,67.34
2018-06-08T08:27:52.866Z,69.86
2018-06-08T08:28:53.276Z,70.54
2018-06-08T08:29:53.315Z,68.79
2018-06-08T08:30:53.460Z,67.54
2018-06-08T08:31:53.612Z,66.89
2018-06-08T08:32:53.819Z,67.18
2018-06-08T08:33:53.961Z,68.35
2018-06-08T08:34:54.103Z,67.66
2018-06-08T08:35:54.371Z,67.18
2018-06-08T08:36:54.575Z,67.57
2018-06-08T08:37:54.683Z,67.41
2018-06-08T08:38:54.824Z,65.66
2018-06-08T08:39:55.169Z,65.75
2018-06-08T08:40:55.229Z,65.27
2018-06-08T08:41:55.341Z,66.24
2018-06-08T08:42:55.626Z,66.72
2018-06-08T08:43:55.733Z,67.80
2018-06-08T08:44:56.125Z,67.21
2018-06-08T08:45:56.119Z,65.75
2018-06-08T08:46:56.329Z,64.88
2018-06-08T08:47:56.501Z,65.11
2018-06-08T08:48:56.656Z,65.40
2018-06-08T08:49:56.891Z,65.79
2018-06-08T08:50:56.981Z,64.62
2018-06-08T08:51:57.310Z,64.62
2018-06-08T08:52:57.517Z,64.85
2018-06-08T08:53:57.568Z,64.07
2018-06-08T08:54:57.832Z,63.49
2018-06-08T08:55:58.009Z,64.29
2018-06-08T08:56:58.351Z,63.78
2018-06-08T08:57:58.325Z,62.81
2018-06-08T08:58:58.523Z,62.61
2018-06-08T08:59:58.722Z,62.41
2018-06-08T09:00:58.818Z,60.89
2018-06-08T09:01:58.978Z,61.77
2018-06-08T09:02:59.271Z,62.51
2018-06-08T09:03:59.402Z,62.41
2018-06-08T09:04:59.533Z,62.74
2018-06-08T09:05:59.746Z,62.74
2018-06-08T09:06:59.906Z,63.62
2018-06-08T09:08:00.023Z,61.47
2018-06-08T09:09:00.174Z,60.82
2018-06-08T09:10:00.436Z,62.19
2018-06-08T09:11:00.599Z,61.90
2018-06-08T09:12:00.772Z,60.53
2018-06-08T09:13:00.895Z,62.22
2018-06-08T09:14:01.088Z,60.82
2018-06-08T09:15:01.259Z,58.91
2018-06-08T09:16:01.393Z,60.46
2018-06-08T09:17:01.591Z,58.84
2018-06-08T09:18:01.831Z,57.70
2018-06-08T09:19:02.053Z,58.48
2018-06-08T09:20:02.238Z,59.35
2018-06-08T09:21:02.388Z,60.13
2018-06-08T09:22:02.489Z,59.64
2018-06-08T09:23:02.719Z,56.82
2018-06-08T09:24:02.844Z,55.75
2018-06-08T09:25:02.986Z,56.52
2018-06-08T09:26:03.204Z,58.87
2018-06-08T09:27:03.359Z,58.89
2018-06-08T09:28:03.536Z,58.70
2018-06-08T09:29:03.680Z,55.46
2018-06-08T09:30:03.958Z,55.97
2018-06-08T09:31:04.061Z,58.60
2018-06-08T09:32:04.403Z,55.12
2018-06-08T09:33:04.415Z,54.44
2018-06-08T09:34:04.658Z,54.24
2018-06-08T09:35:04.738Z,54.27
2018-06-08T09:36:05.022Z,56.22
2018-06-08T09:37:05.222Z,53.07
2018-06-08T09:38:05.363Z,54.56
2018-06-08T09:39:05.529Z,53.68
2018-06-08T09:40:05.651Z,53.97
2018-06-08T09:41:05.855Z,53.58
2018-06-08T09:42:05.995Z,54.88
2018-06-08T09:43:06.121Z,54.79
2018-06-08T09:44:06.312Z,52.76
2018-06-08T09:45:06.659Z,52.66
2018-06-08T09:46:06.867Z,53.05
2018-06-08T09:47:06.920Z,51.81
2018-06-08T09:48:07.323Z,51.12
2018-06-08T09:49:07.419Z,51.61
2018-06-08T09:50:07.524Z,48.19
2018-06-08T09:51:07.661Z,46.23
2018-06-08T09:52:07.892Z,46.21
2018-06-08T09:53:08.030Z,47.38
2018-06-08T09:54:08.214Z,48.19
2018-06-08T09:55:08.402Z,48.38
2018-06-08T09:56:08.594Z,47.89
2018-06-08T09:57:08.729Z,48.87
2018-06-08T09:58:08.947Z,48.28
2018-06-08T09:59:09.106Z,47.99
2018-06-08T10:00:09.291Z,48.65
2018-06-08T10:01:09.377Z,47.97
2018-06-08T10:02:09.601Z,48.65
2018-06-08T10:03:09.681Z,48.36
2018-06-08T10:04:10.071Z,47.77
2018-06-08T10:05:10.119Z,50.90
2018-06-08T10:06:10.351Z,50.83
2018-06-08T10:07:10.433Z,50.17
2018-06-08T10:08:10.754Z,48.24
2018-06-08T10:09:10.822Z,47.75
2018-06-08T10:10:10.987Z,46.01
2018-06-08T10:11:11.243Z,48.04
2018-06-08T10:12:11.337Z,48.04
2018-06-08T10:13:11.553Z,45.72
2018-06-08T10:14:12.551Z,46.52
2018-06-08T10:15:11.858Z,46.01
2018-06-08T10:16:12.110Z,45.72
2018-06-08T10:17:12.259Z,47.16
2018-06-08T10:18:12.424Z,47.92
2018-06-08T10:19:12.541Z,48.31
2018-06-08T10:20:12.809Z,47.75
2018-06-08T10:21:12.919Z,48.50
2018-06-08T10:22:13.127Z,47.82
2018-06-08T10:23:13.407Z,48.58
2018-06-08T10:24:13.542Z,47.60
2018-06-08T10:25:13.633Z,51.61
2018-06-08T10:26:13.892Z,50.93
2018-06-08T10:27:14.039Z,50.83
2018-06-08T10:28:14.265Z,49.85
2018-06-08T10:29:14.397Z,50.27
2018-06-08T10:30:14.531Z,48.50
2018-06-08T10:31:14.620Z,49.58
2018-06-08T10:32:14.800Z,47.92
2018-06-08T10:33:15.061Z,46.45
2018-06-08T10:34:15.187Z,46.86
2018-06-08T10:35:15.411Z,46.52
2018-06-08T10:36:15.578Z,45.86
2018-06-08T10:37:15.725Z,44.12
2018-06-08T10:38:15.863Z,43.52
2018-06-08T10:39:16.109Z,42.88
2018-06-08T10:40:16.204Z,43.37
2018-06-08T10:41:16.497Z,43.66
2018-06-08T10:42:16.527Z,43.69
2018-06-08T10:43:16.829Z,41.31
2018-06-08T10:44:17.066Z,43.27
2018-06-08T10:45:17.146Z,41.68
2018-06-08T10:46:17.330Z,45.49
2018-06-08T10:47:17.522Z,43.70
2018-06-08T10:48:18.455Z,46.34
2018-06-08T10:49:17.966Z,45.95
2018-06-08T10:50:18.068Z,44.31
2018-06-08T10:51:18.285Z,45.21
2018-06-08T10:52:18.442Z,44.16
2018-06-08T10:53:18.651Z,42.80
2018-06-08T10:54:18.863Z,43.18
2018-06-08T10:55:18.989Z,41.92
2018-06-08T10:56:19.052Z,42.96
2018-06-08T10:57:19.316Z,43.08
2018-06-08T10:58:19.522Z,43.08
2018-06-08T10:59:19.807Z,44.82
2018-06-08T11:00:19.836Z,43.84
2018-06-08T11:01:19.979Z,43.04
2018-06-08T11:02:20.427Z,44.41
2018-06-08T11:03:20.496Z,43.70
2018-06-08T11:04:20.547Z,44.95
2018-06-08T11:05:20.745Z,46.03
2018-06-08T11:06:20.954Z,45.73
2018-06-08T11:07:21.081Z,46.34
2018-06-08T11:08:21.445Z,43.38
2018-06-08T11:09:21.431Z,44.56
2018-06-08T11:10:21.685Z,44.17
2018-06-08T11:11:21.858Z,43.88
2018-06-08T11:12:22.017Z,42.50
2018-06-08T11:13:22.243Z,45.73
2018-06-08T11:14:22.356Z,44.46
2018-06-08T11:15:22.518Z,45.64
2018-06-08T11:16:22.719Z,44.05
2018-06-08T11:17:22.907Z,44.24
2018-06-08T11:18:23.240Z,44.64
2018-06-08T11:19:23.959Z,45.44
2018-06-08T11:20:23.431Z,44.56
2018-06-08T11:21:23.584Z,42.94
2018-06-08T11:22:23.696Z,42.08
2018-06-08T11:23:24.710Z,40.13
2018-06-08T11:24:24.259Z,40.16
2018-06-08T11:25:24.568Z,40.27
2018-06-08T11:26:24.923Z,38.32
2018-06-08T11:27:24.722Z,39.56
2018-06-08T11:28:25.202Z,40.03
2018-06-08T11:29:25.066Z,42.15
2018-06-08T11:30:26.343Z,42.80
2018-06-08T11:31:25.602Z,41.58
2018-06-08T11:32:25.663Z,42.66
2018-06-08T11:33:25.654Z,43.89
2018-06-08T11:34:25.963Z,45.06
2018-06-08T11:35:26.489Z,46.14
2018-06-08T11:36:26.409Z,47.67
2018-06-08T11:37:26.594Z,47.87
2018-06-08T11:39:26.945Z,48.24
2018-06-08T11:40:26.921Z,51.17
2018-06-08T11:41:27.165Z,52.02
2018-06-08T11:42:27.277Z,50.36
2018-06-08T11:43:27.466Z,50.95
2018-06-08T11:44:27.934Z,51.63
2018-06-08T11:45:27.996Z,50.65
2018-06-08T11:46:28.175Z,51.53
2018-06-08T11:47:28.367Z,48.34
2018-06-08T11:48:28.538Z,49.82
2018-06-08T11:49:29.014Z,48.68
2018-06-08T11:50:29.166Z,48.31
2018-06-08T11:51:29.175Z,46.36
2018-06-08T11:52:29.341Z,44.48
2018-06-08T11:53:29.962Z,44.40
2018-06-08T11:54:29.864Z,44.30
2018-06-08T11:55:30.048Z,45.50
2018-06-08T11:56:30.155Z,45.05
2018-06-08T11:57:30.329Z,42.65
2018-06-08T11:58:30.619Z,42.51
2018-06-08T11:59:30.923Z,38.40
2018-06-08T12:00:31.271Z,38.40
2018-06-08T12:01:31.026Z,39.03
2018-06-08T12:02:31.243Z,40.13
2018-06-08T12:03:31.548Z,38.30
2018-06-08T12:04:31.495Z,38.91
2018-06-08T12:05:31.831Z,37.85
2018-06-08T12:06:31.793Z,36.57
2018-06-08T12:07:32.163Z,36.46
2018-06-08T12:08:32.287Z,35.88
2018-06-08T12:09:32.572Z,34.39
2018-06-08T12:10:33.489Z,34.59
2018-06-08T12:11:33.479Z,35.64
2018-06-08T12:12:33.085Z,35.54
2018-06-08T12:13:33.481Z,35.61
2018-06-08T12:14:33.609Z,37.93
2018-06-08T12:15:33.533Z,38.19
2018-06-08T12:16:33.581Z,39.72
2018-06-08T12:17:33.864Z,39.53
2018-06-08T12:18:34.224Z,40.88
2018-06-08T12:19:34.374Z,39.88
2018-06-08T12:20:34.255Z,41.62
2018-06-08T12:21:34.482Z,42.02
2018-06-08T12:22:34.809Z,43.37
2018-06-08T12:23:35.161Z,44.05
2018-06-08T12:24:35.301Z,42.78
2018-06-08T12:25:35.798Z,43.29
2018-06-08T12:26:35.924Z,42.68
2018-06-08T12:27:36.201Z,44.15
2018-06-08T12:28:35.945Z,43.15
2018-06-08T12:29:36.161Z,42.66
2018-06-08T12:30:36.505Z,43.17
2018-06-08T12:31:36.616Z,43.07
2018-06-08T12:32:36.766Z,45.23
2018-06-08T12:33:36.908Z,44.95
2018-06-08T12:34:39.645Z,42.21
2018-06-08T12:35:37.442Z,42.31
2018-06-08T12:36:38.454Z,42.03
2018-06-08T12:37:44.440Z,41.74
2018-06-08T12:54:13.301Z,41.64
2018-06-08T12:55:26.793Z,41.47
2018-06-08T13:01:32.091Z,37.54
2018-06-08T13:02:34.682Z,36.87
2018-06-08T13:03:30.851Z,37.23
2018-06-08T13:04:30.263Z,37.98
2018-06-08T13:05:30.463Z,38.35
2018-06-08T13:06:30.578Z,39.01
2018-06-08T13:07:30.750Z,38.60
2018-06-08T13:08:30.949Z,41.23
2018-06-08T13:09:31.185Z,38.98
2018-06-08T13:10:31.333Z,40.23
2018-06-08T13:11:31.539Z,41.29
2018-06-08T13:12:31.735Z,41.27
2018-06-08T13:13:31.852Z,41.46
2018-06-08T13:14:32.069Z,42.64
2018-06-08T13:15:32.192Z,42.71
2018-06-08T13:16:32.505Z,44.10
2018-06-08T13:17:32.521Z,41.35
2018-06-08T13:18:32.690Z,44.01
2018-06-08T13:19:32.912Z,43.46
2018-06-08T13:20:33.109Z,41.62
2018-06-08T13:21:33.290Z,39.76
2018-06-08T13:22:33.453Z,41.72
2018-06-08T13:23:33.615Z,41.50
2018-06-08T13:24:33.874Z,41.19
2018-06-08T13:25:33.989Z,41.29
2018-06-08T13:26:34.143Z,43.81
2018-06-08T13:27:34.339Z,44.57
2018-06-08T13:28:34.460Z,43.30
2018-06-08T13:29:34.597Z,43.49
2018-06-08T13:30:34.951Z,44.16
2018-06-08T13:31:34.947Z,45.53
2018-06-08T13:32:35.268Z,46.11
2018-06-08T13:33:35.556Z,45.33
2018-06-08T13:34:35.719Z,45.80
2018-06-08T13:35:35.821Z,43.75
2018-06-08T13:36:36.040Z,42.68
2018-06-08T13:37:36.335Z,42.48
2018-06-08T13:38:36.395Z,43.65
2018-06-08T13:39:36.636Z,43.75
2018-06-08T13:40:37.717Z,44.84
2018-06-08T13:41:36.870Z,43.87
2018-06-08T13:42:37.319Z,42.30
2018-06-08T13:43:38.027Z,43.10
2018-06-08T13:44:37.934Z,43.89
2018-06-08T13:45:37.717Z,38.98
2018-06-08T13:46:42.963Z,38.62
2018-06-08T13:47:38.315Z,38.48
2018-06-08T13:48:38.541Z,35.57
2018-06-08T13:49:38.871Z,33.43
2018-06-08T13:50:38.834Z,35.51
2018-06-08T13:51:39.096Z,33.61
2018-06-08T13:52:39.456Z,36.63
2018-06-08T13:53:39.671Z,35.44
2018-06-08T13:54:42.398Z,39.54
2018-06-08T13:55:43.235Z,40.11
2018-06-08T13:56:40.476Z,40.39
2018-06-08T13:57:42.449Z,36.92
2018-06-08T13:58:43.923Z,35.63
2018-06-08T14:06:59.336Z,38.53
2018-06-08T14:08:54.124Z,39.29
2018-06-08T14:10:00.281Z,40.08
2018-06-08T14:10:56.936Z,42.61
2018-06-08T14:27:15.067Z,38.53
2018-06-08T14:28:34.910Z,34.90
2018-06-08T14:38:35.042Z,38.16
2018-06-08T14:42:12.483Z,39.59
2018-06-08T14:43:00.031Z,40.08
2018-06-08T14:46:11.950Z,39.96
2018-06-08T14:48:55.142Z,39.45
2018-06-08T14:54:18.996Z,43.80
2018-06-08T14:55:32.994Z,44.38
2018-06-08T14:56:39.563Z,44.87
2018-06-08T14:57:51.586Z,44.37
2018-06-08T15:01:00.860Z,45.73
2018-06-08T15:01:26.875Z,45.25
2018-06-08T15:02:24.292Z,43.95
2018-06-08T15:19:20.334Z,47.63
2018-06-08T15:21:05.131Z,48.02
2018-06-08T15:21:18.137Z,48.22
2018-06-08T15:22:16.195Z,48.29
2018-06-08T15:23:47.409Z,45.39
2018-06-08T15:25:16.328Z,46.93
2018-06-08T15:26:20.299Z,48.68
2018-06-08T15:27:55.322Z,49.27
2018-06-08T15:34:06.769Z,49.61
2018-06-08T15:37:05.754Z,50.58
2018-06-08T15:39:15.149Z,50.68
2018-06-08T15:40:22.128Z,51.53
2018-06-08T15:41:10.555Z,50.07
2018-06-08T15:42:02.877Z,50.85
2018-06-08T15:44:01.802Z,50.65
2018-06-08T15:45:00.473Z,50.73
2018-06-08T15:45:58.533Z,52.31
2018-06-08T15:46:58.652Z,52.67
2018-06-08T15:47:58.626Z,54.22
2018-06-08T15:48:58.893Z,53.93
2018-06-08T15:49:59.754Z,43.63
2018-06-08T15:51:00.110Z,46.06
2018-06-08T15:51:59.420Z,50.34
2018-06-08T15:52:59.834Z,51.70
2018-06-08T15:53:59.829Z,52.96
2018-06-08T15:54:59.969Z,53.74
2018-06-08T15:56:00.174Z,53.64
2018-06-08T15:57:00.392Z,54.03
2018-06-08T15:58:00.523Z,54.49
2018-06-08T15:59:00.727Z,52.64
2018-06-08T16:00:01.076Z,43.90
2018-06-08T16:01:01.114Z,44.38
2018-06-08T16:02:01.292Z,47.40
2018-06-08T16:03:01.498Z,52.15
2018-06-08T16:04:01.504Z,52.74
2018-06-08T16:05:02.120Z,54.39
2018-06-08T16:06:02.073Z,55.65
2018-06-08T16:07:02.463Z,57.60
2018-06-08T16:08:02.525Z,59.80
2018-06-08T16:09:02.819Z,60.28
2018-06-08T16:10:03.050Z,60.68
2018-06-08T16:11:03.005Z,60.35
2018-06-08T16:12:03.130Z,60.74
2018-06-08T16:13:03.793Z,59.58
2018-06-08T16:14:03.663Z,59.67
2018-06-08T16:15:03.605Z,59.64
2018-06-08T16:16:04.116Z,60.03
2018-06-08T16:17:04.538Z,60.03
2018-06-08T16:18:04.340Z,60.71
2018-06-08T16:19:04.551Z,60.91
2018-06-08T16:20:05.285Z,60.71
2018-06-08T16:21:05.151Z,60.91
2018-06-08T16:22:05.612Z,60.42
2018-06-08T16:23:05.424Z,60.39
2018-06-08T16:24:05.622Z,60.30
2018-06-08T16:25:05.944Z,60.88
2018-06-08T16:26:05.697Z,61.19
2018-06-08T16:27:05.663Z,61.07
2018-06-08T16:28:06.036Z,61.17
2018-06-08T16:29:06.368Z,60.97
2018-06-08T16:30:06.399Z,61.26
2018-06-08T16:31:06.749Z,60.97
2018-06-08T16:32:07.129Z,60.58
2018-06-08T16:33:06.901Z,61.75
2018-06-08T16:34:07.168Z,62.20
2018-06-08T16:35:07.484Z,61.85
2018-06-08T16:36:07.754Z,62.10
2018-06-08T16:37:08.112Z,62.20
2018-06-08T16:38:07.878Z,63.46
2018-06-08T16:39:08.169Z,63.46
2018-06-08T16:40:08.474Z,64.50
2018-06-08T16:41:08.799Z,65.37
2018-06-08T16:42:08.692Z,66.14
2018-06-08T16:43:08.815Z,66.43
2018-06-08T16:44:09.006Z,66.50
2018-06-08T16:45:09.188Z,66.78
2018-06-08T16:46:09.317Z,66.78
2018-06-08T16:47:09.655Z,66.98
2018-06-08T16:48:09.894Z,67.37
2018-06-08T16:49:10.055Z,67.37
2018-06-08T16:50:10.542Z,67.56
2018-06-08T16:51:10.766Z,68.15
2018-06-08T16:52:10.729Z,67.95
2018-06-08T16:53:10.798Z,68.63
2018-06-08T16:54:10.856Z,67.95
2018-06-08T16:55:11.184Z,68.24
2018-06-08T16:56:11.372Z,68.24
2018-06-08T16:57:11.218Z,67.66
2018-06-08T16:58:11.669Z,67.37
2018-06-08T16:59:11.719Z,67.37
2018-06-08T17:00:11.839Z,67.18
2018-06-08T17:01:12.071Z,66.82
2018-06-08T17:02:12.156Z,66.05
2018-06-08T17:03:12.383Z,65.47
2018-06-08T17:04:12.759Z,65.95
2018-06-08T17:05:12.833Z,65.75
2018-06-08T17:06:12.968Z,66.05
2018-06-08T17:07:13.192Z,66.08
2018-06-08T17:08:13.250Z,66.56
2018-06-08T17:09:13.573Z,66.75
2018-06-08T17:10:13.803Z,66.92
2018-06-08T17:11:13.923Z,67.02
2018-06-08T17:12:13.912Z,67.60
2018-06-08T17:13:14.390Z,68.08
2018-06-08T17:14:14.488Z,68.66
2018-06-08T17:15:14.612Z,68.85
2018-06-08T17:16:14.816Z,68.85
2018-06-08T17:17:15.118Z,69.43
2018-06-08T17:18:15.709Z,70.40
2018-06-08T17:19:15.282Z,70.60
2018-06-08T17:20:15.805Z,70.79
2018-06-08T17:21:15.943Z,71.28
2018-06-08T17:22:16.030Z,71.37
2018-06-08T17:23:16.349Z,71.37
2018-06-08T17:24:16.301Z,71.76
2018-06-08T17:27:14.615Z,72.79
2018-06-08T17:28:10.005Z,72.60
2018-06-08T17:29:12.857Z,72.60
2018-06-08T17:30:11.524Z,73.08
2018-06-08T17:31:10.358Z,73.18
2018-06-08T17:32:08.646Z,73.37